Time;durP1;ratioP1;P1;durP2;ratioP2;P2;SDS_P1;SDS_P2;PMS_P1;PMS_P2;Temp;Humidity;BMP_temperature;BMP_pressure;BME280_temperature;BME280_humidity;BME280_pressure;Samples;Min_cycle;Max_cycle;Signal;HPM_P1;HPM_P2
2022/08/24 00:05:06;;;;;;;3.70;1.70;;;;;;;14.99;95.58;97820.03;18234868;32;20047;-62
2022/08/24 00:15:15;;;;;;;1.75;1.52;;;;;;;14.87;96.13;97813.13;18222141;32;20050;-62
2022/08/24 00:25:19;;;;;;;2.97;1.75;;;;;;;14.75;96.37;97834.53;18221111;32;20070;-62
2022/08/24 00:35:23;;;;;;;2.10;1.90;;;;;;;14.66;97.26;97830.84;18233784;32;20489;-62
2022/08/24 00:45:25;;;;;;;2.27;2.00;;;;;;;14.53;96.47;97816.81;18233228;32;20092;-62
2022/08/24 00:55:32;;;;;;;4.78;2.35;;;;;;;14.47;97.63;97819.88;18160362;32;20121;-61
2022/08/24 01:05:36;;;;;;;3.17;2.10;;;;;;;14.38;98.07;97820.53;18160113;32;20099;-62
2022/08/24 01:15:44;;;;;;;3.55;2.47;;;;;;;14.36;99.09;97821.94;18146727;32;20063;-61
2022/08/24 01:25:46;;;;;;;3.92;2.00;;;;;;;14.26;98.71;97817.44;18167291;32;20475;-62
2022/08/24 01:35:49;;;;;;;2.17;1.98;;;;;;;14.20;100.00;97824.84;18158713;32;20107;-62
2022/08/24 01:45:52;;;;;;;2.45;2.08;;;;;;;14.10;99.76;97818.69;18158208;32;20082;-62
2022/08/24 01:55:55;;;;;;;3.03;2.22;;;;;;;14.01;99.72;97815.81;18158151;32;20418;-62
2022/08/24 02:05:58;;;;;;;2.65;2.28;;;;;;;13.91;100.00;97814.03;18158818;32;20042;-62
2022/08/24 02:16:01;;;;;;;3.03;2.37;;;;;;;13.85;100.00;97816.00;18033458;32;20074;-62
2022/08/24 02:26:05;;;;;;;3.27;2.70;;;;;;;13.77;100.00;97805.72;18028002;32;20071;-62
2022/08/24 02:36:10;;;;;;;2.53;2.33;;;;;;;13.79;100.00;97811.69;18043279;32;20500;-62
2022/08/24 02:46:29;;;;;;;4.70;2.40;;;;;;;13.72;100.00;97812.03;18152259;32;20422;-63
2022/08/24 02:56:32;;;;;;;3.85;2.70;;;;;;;13.67;100.00;97822.94;18175400;32;20066;-62
2022/08/24 03:06:34;;;;;;;2.00;1.80;;;;;;;13.65;100.00;97816.16;18218650;32;20054;-62
2022/08/24 03:16:37;;;;;;;4.47;2.50;;;;;;;13.61;100.00;97813.22;18041264;32;20439;-61
2022/08/24 03:26:40;;;;;;;2.93;2.63;;;;;;;13.64;100.00;97812.66;18040640;32;20063;-62
2022/08/24 03:36:45;;;;;;;3.47;2.10;;;;;;;13.63;100.00;97808.31;17966754;32;20091;-62
2022/08/24 03:46:47;;;;;;;4.33;2.37;;;;;;;13.63;100.00;97804.78;17996777;32;20134;-62
2022/08/24 03:56:50;;;;;;;2.20;1.90;;;;;;;13.53;100.00;97801.06;18088807;32;20483;-62
2022/08/24 04:06:52;;;;;;;3.30;2.17;;;;;;;13.45;100.00;97809.03;18136094;32;20134;-62
2022/08/24 04:16:55;;;;;;;2.70;2.12;;;;;;;13.38;100.00;97809.34;18150021;32;20187;-65
2022/08/24 04:26:59;;;;;;;2.73;2.30;;;;;;;13.28;100.00;97803.97;18161855;32;20105;-65
2022/08/24 04:37:01;;;;;;;3.20;2.90;;;;;;;13.16;100.00;97805.16;18150398;32;20655;-64
2022/08/24 04:47:04;;;;;;;4.53;2.60;;;;;;;13.22;100.00;97800.50;18168072;32;20465;-64
2022/08/24 04:57:07;;;;;;;5.20;2.37;;;;;;;13.23;100.00;97813.78;18170096;32;20070;-64
2022/08/24 05:07:09;;;;;;;3.23;2.17;;;;;;;13.17;100.00;97823.06;18217870;32;20092;-65
2022/08/24 05:17:12;;;;;;;3.30;2.27;;;;;;;13.16;100.00;97828.78;18023217;32;20426;-64
2022/08/24 05:27:16;;;;;;;3.60;2.70;;;;;;;13.21;100.00;97848.56;18035108;32;20074;-64
2022/08/24 05:37:21;;;;;;;5.57;2.70;;;;;;;13.38;100.00;97841.94;18035032;32;20071;-65
2022/08/24 05:47:34;;;;;;;;;;;;;;;13.72;100.00;97847.34;18191221;32;20050;-64
2022/08/24 05:57:39;;;;;;;2.60;2.20;;;;;;;14.07;100.00;97842.66;18234342;32;19957;-64
2022/08/24 06:07:45;;;;;;;3.00;2.70;;;;;;;14.40;100.00;97850.16;18239860;32;20062;-64
2022/08/24 06:17:49;;;;;;;3.85;2.42;;;;;;;14.78;99.53;97844.81;18240217;32;20073;-62
2022/08/24 06:27:53;;;;;;;4.20;2.60;;;;;;;15.14;97.96;97857.91;18226124;32;20371;-62
2022/08/24 06:37:57;;;;;;;3.37;2.25;;;;;;;15.58;96.47;97855.88;18225156;32;20050;-62
2022/08/24 06:48:01;;;;;;;;;;;;;;;16.08;93.81;97866.22;18238868;32;20061;-62
2022/08/24 06:58:04;;;;;;;2.70;2.25;;;;;;;16.49;91.40;97870.88;18238431;32;20348;-62
2022/08/24 07:08:09;;;;;;;2.93;2.60;;;;;;;17.09;89.39;97877.31;18172951;32;20059;-62
2022/08/24 07:18:14;;;;;;;3.37;2.37;;;;;;;17.55;86.18;97887.16;18174384;32;20046;-62
2022/08/24 07:28:18;;;;;;;3.72;2.60;;;;;;;18.10;84.09;97890.75;18172953;32;20089;-63
2022/08/24 07:38:36;;;;;;;3.03;2.62;;;;;;;18.80;79.26;97897.31;18173801;32;20055;-63
2022/08/24 07:48:40;;;;;;;4.53;3.20;;;;;;;19.40;75.18;97903.19;18171925;32;20066;-62
2022/08/24 07:58:44;;;;;;;4.28;3.25;;;;;;;19.91;67.35;97899.97;18172984;32;20071;-63
2022/08/24 08:08:52;;;;;;;4.97;2.70;;;;;;;20.41;66.71;97915.81;18231346;32;20069;-63
2022/08/24 08:19:18;;;;;;;4.05;2.58;;;;;;;20.90;63.32;97907.22;18234453;32;20050;-63
2022/08/24 08:29:24;;;;;;;3.25;2.33;;;;;;;21.19;61.51;97930.31;18216735;32;20086;-63
2022/08/24 08:39:30;;;;;;;5.00;2.45;;;;;;;21.86;60.73;97919.44;18233961;32;20095;-63
2022/08/24 08:50:07;;;;;;;3.75;2.50;;;;;;;22.45;59.81;97923.88;18232837;32;20103;-63
2022/08/24 09:00:49;;;;;;;3.37;2.40;;;;;;;22.97;55.16;97932.62;18232476;32;20069;-63
2022/08/24 09:11:31;;;;;;;2.90;2.20;;;;;;;23.47;51.81;97923.09;18231958;32;20121;-63
2022/08/24 09:22:08;;;;;;;2.87;2.12;;;;;;;24.02;52.55;97920.75;18230713;32;20106;-62
2022/08/24 09:32:36;;;;;;;3.33;2.30;;;;;;;24.53;49.37;97916.53;18234779;32;20127;-62
2022/08/24 09:43:38;;;;;;;3.70;2.03;;;;;;;24.91;50.07;97911.53;18228968;32;20102;-63
2022/08/24 09:54:18;;;;;;;2.78;2.25;;;;;;;25.25;47.02;97901.62;18239679;32;20058;-63
2022/08/24 10:04:53;;;;;;;2.75;2.03;;;;;;;25.54;48.74;97883.69;18240080;32;20322;-63
2022/08/24 10:15:13;;;;;;;3.03;2.10;;;;;;;25.81;44.06;97878.28;18240395;32;20118;-63
2022/08/24 10:25:45;;;;;;;2.37;1.50;;;;;;;26.28;46.73;97859.75;18239807;32;20063;-63
2022/08/24 10:36:20;;;;;;;3.72;1.30;;;;;;;26.53;43.27;97859.34;18239365;32;20389;-63
2022/08/24 10:47:11;;;;;;;3.37;1.40;;;;;;;26.71;39.01;97843.03;18223833;32;20491;-63
2022/08/24 10:57:17;;;;;;;1.80;1.00;;;;;;;27.36;37.54;97836.41;17981128;32;20131;-63
2022/08/24 11:07:24;;;;;;;2.80;1.30;;;;;;;27.85;37.80;97842.13;17980226;33;20122;-63
2022/08/24 11:18:02;;;;;;;2.22;1.12;;;;;;;28.26;35.46;97836.56;17980149;32;20080;-63
2022/08/24 11:29:01;;;;;;;3.92;1.27;;;;;;;28.47;35.03;97844.28;18138387;32;20058;-63
2022/08/24 11:39:15;;;;;;;2.67;1.20;;;;;;;28.95;37.71;97842.66;18236500;32;20058;-63
2022/08/24 11:49:40;;;;;;;2.35;1.48;;;;;;;29.19;36.68;97827.25;18222140;32;20046;-63
2022/08/24 12:12:07;;;;;;;2.60;1.20;;;;;;;29.95;37.62;97833.94;18235037;32;20059;-63
2022/08/24 12:22:33;;;;;;;1.90;1.00;;;;;;;30.61;36.77;97821.59;18224011;32;20058;-63
2022/08/24 12:32:56;;;;;;;1.55;1.30;;;;;;;30.70;32.53;97822.00;18233930;32;20434;-64
2022/08/24 12:43:12;;;;;;;2.12;1.73;;;;;;;30.95;33.70;97814.78;18233759;32;20085;-62
2022/08/24 12:53:50;;;;;;;2.87;1.70;;;;;;;31.29;34.87;97820.66;18233370;32;20649;-63
2022/08/24 13:05:14;;;;;;;1.85;1.30;;;;;;;31.43;37.83;97817.78;18231285;32;20095;-63
2022/08/24 13:15:48;;;;;;;2.20;1.02;;;;;;;31.50;35.12;97802.22;18232202;32;20062;-63
2022/08/24 13:26:17;;;;;;;1.10;0.80;;;;;;;31.67;35.26;97784.56;18231293;32;20121;-63
2022/08/24 13:36:44;;;;;;;2.78;1.00;;;;;;;32.05;28.39;97781.09;18218135;32;20066;-62
2022/08/24 13:47:05;;;;;;;1.30;1.10;;;;;;;32.20;31.31;97787.41;18230895;32;20055;-62
2022/08/24 13:57:32;;;;;;;1.48;0.93;;;;;;;32.18;33.69;97767.44;18230409;32;20105;-62
2022/08/24 14:07:54;;;;;;;1.45;1.00;;;;;;;31.95;31.95;97768.81;18229666;32;20054;-62
2022/08/24 14:18:26;;;;;;;1.20;1.00;;;;;;;31.79;25.54;97758.13;18232390;32;20089;-62
2022/08/24 14:28:45;;;;;;;0.70;0.65;;;;;;;31.89;29.03;97759.25;18240124;32;20071;-62
2022/08/24 14:39:48;;;;;;;2.70;1.00;;;;;;;31.43;26.99;97749.94;18239143;32;20354;-62
2022/08/24 14:50:09;;;;;;;2.13;1.00;;;;;;;31.48;26.62;97754.31;17981329;33;20067;-63
2022/08/24 15:00:23;;;;;;;2.70;1.00;;;;;;;31.32;29.86;97736.03;17981410;32;20079;-62
2022/08/24 15:10:53;;;;;;;1.80;0.73;;;;;;;30.47;30.94;97735.94;17980953;32;20075;-62
2022/08/24 15:21:19;;;;;;;1.12;0.85;;;;;;;29.86;30.83;97733.16;18092963;32;20138;-63
2022/08/24 15:31:27;;;;;;;1.10;0.65;;;;;;;29.52;31.23;97717.59;18040104;32;20063;-62
2022/08/24 15:41:36;;;;;;;1.20;0.80;;;;;;;29.30;30.14;97713.16;18040603;32;20067;-62
2022/08/24 15:51:52;;;;;;;0.77;0.50;;;;;;;28.96;29.56;97705.06;18039880;32;20063;-63
2022/08/24 16:02:25;;;;;;;1.00;0.70;;;;;;;28.63;31.33;97695.75;18202528;32;20475;-63
2022/08/24 16:12:28;;;;;;;0.88;0.70;;;;;;;28.47;30.20;97696.88;18199602;32;20099;-63
2022/08/24 16:22:38;;;;;;;1.35;0.60;;;;;;;28.17;34.95;97713.78;18234986;32;20106;-62
2022/08/24 16:32:53;;;;;;;1.27;0.40;;;;;;;27.72;39.06;97706.25;18234426;32;20059;-63
2022/08/24 16:42:57;;;;;;;0.70;0.57;;;;;;;27.20;43.08;97699.75;18220116;32;20472;-62
2022/08/24 16:52:59;;;;;;;2.22;0.62;;;;;;;27.01;48.35;97709.88;18219745;32;20400;-63
2022/08/24 17:03:03;;;;;;;0.80;0.50;;;;;;;26.78;43.60;97700.84;18085541;32;20117;-63
2022/08/24 17:13:06;;;;;;;0.70;0.50;;;;;;;26.30;47.43;97704.16;18097833;32;20244;-63
2022/08/24 17:23:09;;;;;;;0.80;0.60;;;;;;;25.68;52.12;97703.19;18097665;32;20571;-63
2022/08/24 17:33:12;;;;;;;1.23;0.60;;;;;;;25.15;52.87;97711.28;18095347;32;20058;-62
2022/08/24 17:43:15;;;;;;;2.10;0.70;;;;;;;24.96;50.56;97710.12;18166973;32;20054;-63
2022/08/24 17:53:18;;;;;;;1.77;0.70;;;;;;;24.77;52.15;97712.91;18169734;32;20066;-63
2022/08/24 18:03:21;;;;;;;1.50;0.45;;;;;;;24.11;57.65;97718.16;18196005;32;20058;-63
2022/08/24 18:13:25;;;;;;;1.25;0.55;;;;;;;23.42;61.25;97726.62;18240364;32;20066;-62
2022/08/24 18:23:29;;;;;;;1.00;0.68;;;;;;;22.85;61.81;97727.44;18240381;32;20046;-62
2022/08/24 18:33:33;;;;;;;2.67;0.70;;;;;;;22.32;64.46;97732.94;18239546;32;20096;-63
2022/08/24 18:43:37;;;;;;;1.80;1.00;;;;;;;21.86;65.26;97734.19;18239291;32;20097;-63
2022/08/24 18:53:40;;;;;;;4.20;0.95;;;;;;;21.43;63.91;97736.28;18212488;32;20093;-62
2022/08/24 19:03:43;;;;;;;;;;;;;;;21.02;63.43;97744.28;18237192;32;20102;-62
2022/08/24 19:13:46;;;;;;;1.00;0.88;;;;;;;20.73;65.54;97753.44;18224856;32;20010;-63
2022/08/24 19:23:49;;;;;;;1.30;0.85;;;;;;;20.39;68.40;97755.25;18223785;32;20062;-63
2022/08/24 19:33:53;;;;;;;1.98;0.98;;;;;;;20.11;70.48;97755.72;18236815;32;20379;-62
2022/08/24 19:54:33;;;;;;;2.17;1.20;;;;;;;19.58;71.54;97746.88;18236141;32;20062;-62
2022/08/24 20:04:37;;;;;;;3.25;1.30;;;;;;;19.33;73.26;97743.88;18235834;32;20054;-62
2022/08/24 20:14:41;;;;;;;2.45;1.50;;;;;;;19.10;75.54;97756.97;18209137;32;20062;-62
2022/08/24 20:24:44;;;;;;;2.13;1.20;;;;;;;18.92;77.56;97748.75;18235134;32;20066;-62
2022/08/24 20:34:47;;;;;;;;;;;;;;;18.73;78.98;97750.97;18220974;32;20134;-62
2022/08/24 20:44:51;;;;;;;2.33;1.50;;;;;;;18.53;79.27;97744.22;18234062;32;19954;-62
2022/08/24 20:54:54;;;;;;;3.15;1.33;;;;;;;18.37;80.62;97752.87;18233333;32;20114;-62
2022/08/24 21:04:58;;;;;;;2.03;1.40;;;;;;;18.20;81.75;97753.66;18233054;32;20065;-62
2022/08/24 21:15:02;;;;;;;3.35;1.60;;;;;;;18.08;82.85;97754.25;18232426;32;20438;-62
2022/08/24 21:25:09;;;;;;;1.95;1.60;;;;;;;17.94;83.65;97759.03;18231317;32;20393;-63
2022/08/24 21:35:12;;;;;;;2.45;1.58;;;;;;;17.82;84.09;97756.88;18231459;32;20062;-63
2022/08/24 21:45:17;;;;;;;3.12;1.87;;;;;;;17.74;84.41;97757.63;18231138;32;20066;-62
2022/08/24 21:55:20;;;;;;;3.12;1.65;;;;;;;17.70;85.56;97762.91;18204485;32;20078;-62
2022/08/24 22:05:25;;;;;;;4.20;1.98;;;;;;;17.70;86.17;97757.44;18230065;32;20109;-62
2022/08/24 22:15:32;;;;;;;4.03;2.15;;;;;;;17.69;87.48;97749.56;18229716;32;20063;-62
2022/08/24 22:25:35;;;;;;;6.68;1.85;;;;;;;17.67;88.14;97747.13;18229453;32;20138;-62
2022/08/24 22:35:40;;;;;;;2.53;2.13;;;;;;;17.66;89.42;97748.25;18229192;32;20046;-62
2022/08/24 22:45:50;;;;;;;2.95;2.17;;;;;;;17.67;90.30;97738.16;18238858;32;20085;-63
2022/08/24 22:55:53;;;;;;;2.85;2.10;;;;;;;17.62;90.73;97737.16;18238744;32;20054;-63
2022/08/24 23:05:56;;;;;;;2.87;2.25;;;;;;;17.58;90.83;97741.66;18237842;32;20082;-62
2022/08/24 23:16:00;;;;;;;3.10;2.12;;;;;;;17.53;91.21;97732.78;18223901;32;20486;-62
2022/08/24 23:26:04;;;;;;;4.93;2.60;;;;;;;17.45;93.66;97737.06;18237080;32;20185;-62
2022/08/24 23:36:09;;;;;;;2.53;2.20;;;;;;;17.38;93.46;97728.50;18236928;32;20082;-62
2022/08/24 23:46:12;;;;;;;2.70;2.30;;;;;;;17.27;94.78;97727.97;18236332;32;20071;-62
2022/08/24 23:56:24;;;;;;;6.62;2.15;;;;;;;17.15;94.95;97708.59;18100954;32;20079;-63
